createdAt,value
2019-03-28T00:00:25.587Z,16.60
2019-03-28T00:01:51.630Z,16.50
2019-03-28T00:03:17.680Z,16.50
2019-03-28T00:04:43.694Z,16.50
2019-03-28T00:06:09.696Z,16.50
2019-03-28T00:07:36.025Z,16.50
2019-03-28T00:09:02.159Z,16.50
2019-03-28T00:10:28.196Z,16.50
2019-03-28T00:11:54.245Z,16.50
2019-03-28T00:13:20.226Z,16.50
2019-03-28T00:14:46.261Z,16.50
2019-03-28T00:16:12.185Z,16.60
2019-03-28T00:17:38.214Z,16.50
2019-03-28T00:19:04.341Z,16.50
2019-03-28T00:20:30.346Z,16.50
2019-03-28T00:21:56.416Z,16.50
2019-03-28T00:23:35.409Z,16.50
2019-03-28T00:25:05.516Z,16.40
2019-03-28T00:26:32.025Z,16.50
2019-03-28T00:27:58.191Z,16.40
2019-03-28T00:29:24.581Z,16.40
2019-03-28T00:30:50.596Z,16.40
2019-03-28T00:32:16.588Z,16.30
2019-03-28T00:33:42.591Z,16.40
2019-03-28T00:35:08.781Z,16.40
2019-03-28T00:36:34.766Z,16.40
2019-03-28T00:38:00.754Z,16.40
2019-03-28T00:39:26.754Z,16.40
2019-03-28T00:40:52.733Z,16.40
2019-03-28T00:42:18.726Z,16.40
2019-03-28T00:43:44.779Z,16.40
2019-03-28T00:45:11.149Z,16.50
2019-03-28T00:46:37.160Z,16.50
2019-03-28T00:48:03.149Z,16.40
2019-03-28T00:49:29.231Z,16.40
2019-03-28T00:50:55.250Z,16.40
2019-03-28T00:52:21.270Z,16.40
2019-03-28T00:53:47.300Z,16.50
2019-03-28T00:55:13.506Z,16.50
2019-03-28T00:56:46.770Z,16.40
2019-03-28T00:58:07.211Z,16.40
2019-03-28T00:59:33.230Z,16.30
2019-03-28T01:00:59.218Z,16.30
2019-03-28T01:02:25.351Z,16.40
2019-03-28T01:03:51.531Z,16.30
2019-03-28T01:05:17.733Z,16.40
2019-03-28T01:06:43.775Z,16.40
2019-03-28T01:08:09.822Z,16.30
2019-03-28T01:09:35.820Z,16.40
2019-03-28T01:11:01.907Z,16.30
2019-03-28T01:12:27.969Z,16.30
2019-03-28T01:13:54.004Z,16.30
2019-03-28T01:15:20.008Z,16.30
2019-03-28T01:16:46.022Z,16.20
2019-03-28T01:18:12.000Z,16.20
2019-03-28T01:19:37.962Z,16.20
2019-03-28T01:21:04.047Z,16.20
2019-03-28T01:22:31.055Z,16.30
2019-03-28T01:23:57.335Z,16.30
2019-03-28T01:25:23.321Z,16.30
2019-03-28T01:26:57.300Z,16.30
2019-03-28T01:28:16.957Z,16.20
2019-03-28T01:29:42.937Z,16.20
2019-03-28T01:31:08.962Z,16.30
2019-03-28T01:32:34.952Z,16.20
2019-03-28T01:34:00.934Z,16.30
2019-03-28T01:35:26.961Z,16.30
2019-03-28T01:36:52.931Z,16.30
2019-03-28T01:38:19.048Z,16.30
2019-03-28T01:39:45.144Z,16.30
2019-03-28T01:41:11.173Z,16.20
2019-03-28T01:42:37.281Z,16.20
2019-03-28T01:44:03.438Z,16.20
2019-03-28T01:45:29.509Z,16.20
2019-03-28T01:46:55.746Z,16.20
2019-03-28T01:48:21.741Z,16.20
2019-03-28T01:49:47.944Z,16.20
2019-03-28T01:51:14.005Z,16.10
2019-03-28T01:52:40.146Z,16.10
2019-03-28T01:54:06.371Z,16.20
2019-03-28T01:55:32.468Z,16.10
2019-03-28T01:57:10.429Z,16.20
2019-03-28T01:58:26.231Z,16.20
2019-03-28T01:59:52.203Z,16.20
2019-03-28T02:01:18.332Z,16.10
2019-03-28T02:02:44.310Z,16.20
2019-03-28T02:04:10.334Z,16.20
2019-03-28T02:05:36.407Z,16.10
2019-03-28T02:07:02.424Z,16.10
2019-03-28T02:08:28.449Z,16.20
2019-03-28T02:09:54.419Z,16.20
2019-03-28T02:11:20.482Z,16.10
2019-03-28T02:12:46.425Z,16.20
2019-03-28T02:14:12.689Z,16.20
2019-03-28T02:15:38.721Z,16.10
2019-03-28T02:17:04.924Z,16.10
2019-03-28T02:18:30.913Z,16.10
2019-03-28T02:19:56.900Z,16.10
2019-03-28T02:21:25.488Z,16.10
2019-03-28T02:22:50.794Z,16.10
2019-03-28T02:24:17.893Z,16.00
2019-03-28T02:25:43.880Z,16.10
2019-03-28T02:27:22.908Z,16.10
2019-03-28T02:28:37.555Z,16.10
2019-03-28T02:30:03.753Z,16.10
2019-03-28T02:31:29.745Z,16.10
2019-03-28T02:32:55.797Z,16.10
2019-03-28T02:34:21.779Z,16.10
2019-03-28T02:35:47.756Z,16.10
2019-03-28T02:37:13.782Z,16.00
2019-03-28T02:38:39.800Z,16.00
2019-03-28T02:40:06.424Z,16.00
2019-03-28T02:41:32.433Z,16.00
2019-03-28T02:42:58.498Z,16.00
2019-03-28T02:44:24.605Z,16.00
2019-03-28T02:45:50.629Z,16.00
2019-03-28T02:47:16.754Z,15.90
2019-03-28T02:48:42.764Z,16.00
2019-03-28T02:50:09.069Z,16.00
2019-03-28T02:51:35.196Z,15.90
2019-03-28T02:53:01.229Z,15.90
2019-03-28T02:54:27.336Z,16.00
2019-03-28T02:55:53.356Z,16.00
2019-03-28T02:57:19.478Z,15.90
2019-03-28T02:58:45.592Z,15.80
2019-03-28T03:00:12.152Z,15.80
2019-03-28T03:01:38.233Z,15.80
2019-03-28T03:03:04.544Z,15.80
2019-03-28T03:04:30.559Z,15.80
2019-03-28T03:05:56.612Z,15.70
2019-03-28T03:07:22.573Z,15.70
2019-03-28T03:08:48.630Z,15.80
2019-03-28T03:10:15.624Z,15.80
2019-03-28T03:11:42.952Z,15.80
2019-03-28T03:13:09.207Z,15.80
2019-03-28T03:14:35.227Z,15.80
2019-03-28T03:16:01.625Z,15.80
2019-03-28T03:17:27.580Z,15.70
2019-03-28T03:18:53.601Z,15.80
2019-03-28T03:20:19.652Z,15.70
2019-03-28T03:21:45.782Z,15.70
2019-03-28T03:23:11.967Z,15.80
2019-03-28T03:24:38.090Z,15.80
2019-03-28T03:26:04.645Z,15.70
2019-03-28T03:27:30.713Z,15.80
2019-03-28T03:28:56.749Z,15.80
2019-03-28T03:30:22.747Z,15.80
2019-03-28T03:31:48.759Z,15.80
2019-03-28T03:33:14.765Z,15.70
2019-03-28T03:34:40.796Z,15.70
2019-03-28T03:36:06.882Z,15.70
2019-03-28T03:37:32.981Z,15.70
2019-03-28T03:38:59.049Z,15.70
2019-03-28T03:40:25.149Z,15.70
2019-03-28T03:41:51.266Z,15.70
2019-03-28T03:43:17.283Z,15.70
2019-03-28T03:44:43.277Z,15.70
2019-03-28T03:46:09.561Z,15.60
2019-03-28T03:47:35.684Z,15.60
2019-03-28T03:49:01.754Z,15.60
2019-03-28T03:50:29.512Z,15.60
2019-03-28T03:51:55.528Z,15.60
2019-03-28T03:53:21.635Z,15.60
2019-03-28T03:54:47.606Z,15.60
2019-03-28T03:56:13.728Z,15.60
2019-03-28T03:57:39.727Z,15.60
2019-03-28T03:59:05.859Z,15.60
2019-03-28T04:00:33.614Z,15.60
2019-03-28T04:01:59.706Z,15.50
2019-03-28T04:03:25.701Z,15.60
2019-03-28T04:04:51.798Z,15.50
2019-03-28T04:06:17.823Z,15.50
2019-03-28T04:07:43.876Z,15.50
2019-03-28T04:09:10.099Z,15.50
2019-03-28T04:10:36.168Z,15.50
2019-03-28T04:12:02.140Z,15.60
2019-03-28T04:13:29.948Z,15.60
2019-03-28T04:14:56.340Z,15.60
2019-03-28T04:16:22.600Z,15.60
2019-03-28T04:17:51.341Z,15.60
2019-03-28T04:19:20.665Z,15.60
2019-03-28T04:20:47.009Z,15.50
2019-03-28T04:22:13.031Z,15.50
2019-03-28T04:23:39.097Z,15.50
2019-03-28T04:25:05.212Z,15.50
2019-03-28T04:26:34.326Z,15.50
2019-03-28T04:28:04.275Z,15.50
2019-03-28T04:29:30.621Z,15.50
2019-03-28T04:30:56.853Z,15.50
2019-03-28T04:32:22.886Z,15.50
2019-03-28T04:33:48.844Z,15.50
2019-03-28T04:35:14.857Z,15.50
2019-03-28T04:36:41.194Z,15.50
2019-03-28T04:38:07.582Z,15.50
2019-03-28T04:39:33.519Z,15.50
2019-03-28T04:41:00.334Z,15.40
2019-03-28T04:42:26.483Z,15.40
2019-03-28T04:43:55.649Z,15.50
2019-03-28T04:45:20.389Z,15.50
2019-03-28T04:46:46.517Z,15.40
2019-03-28T04:48:12.688Z,15.40
2019-03-28T04:49:38.756Z,15.40
2019-03-28T04:51:04.873Z,15.40
2019-03-28T04:52:32.115Z,15.50
2019-03-28T04:53:58.266Z,15.50
2019-03-28T04:55:24.245Z,15.40
2019-03-28T04:56:50.338Z,15.40
2019-03-28T04:58:16.359Z,15.40
2019-03-28T04:59:42.600Z,15.40
2019-03-28T05:01:08.603Z,15.40
2019-03-28T05:02:34.621Z,15.40
2019-03-28T05:04:00.621Z,15.40
2019-03-28T05:05:26.679Z,15.40
2019-03-28T05:06:52.810Z,15.40
2019-03-28T05:08:18.788Z,15.40
2019-03-28T05:09:44.849Z,15.40
2019-03-28T05:11:10.944Z,15.40
2019-03-28T05:12:37.343Z,15.40
2019-03-28T05:14:03.634Z,15.40
2019-03-28T05:15:29.643Z,15.40
2019-03-28T05:16:55.733Z,15.40
2019-03-28T05:18:21.847Z,15.40
2019-03-28T05:19:48.349Z,15.40
2019-03-28T05:21:14.681Z,15.40
2019-03-28T05:22:40.950Z,15.30
2019-03-28T05:24:07.043Z,15.30
2019-03-28T05:25:33.196Z,15.30
2019-03-28T05:26:59.262Z,15.30
2019-03-28T05:28:25.987Z,15.30
2019-03-28T05:29:52.268Z,15.30
2019-03-28T05:31:18.412Z,15.30
2019-03-28T05:32:44.531Z,15.30
2019-03-28T05:34:10.612Z,15.30
2019-03-28T05:35:36.593Z,15.30
2019-03-28T05:37:02.617Z,15.40
2019-03-28T05:38:28.716Z,15.30
2019-03-28T05:39:54.767Z,15.40
2019-03-28T05:41:20.876Z,15.30
2019-03-28T05:42:46.908Z,15.30
2019-03-28T05:44:13.017Z,15.30
2019-03-28T05:45:39.137Z,15.30
2019-03-28T05:47:05.129Z,15.30
2019-03-28T05:48:31.159Z,15.30
2019-03-28T05:49:57.145Z,15.30
2019-03-28T05:51:23.177Z,15.30
2019-03-28T05:52:49.271Z,15.30
2019-03-28T05:54:15.345Z,15.30
2019-03-28T05:55:41.352Z,15.30
2019-03-28T05:57:07.299Z,15.30
2019-03-28T05:58:33.325Z,15.30
2019-03-28T05:59:59.474Z,15.30
2019-03-28T06:01:28.305Z,15.30
2019-03-28T06:02:54.496Z,15.30
2019-03-28T06:04:20.547Z,15.30
2019-03-28T06:05:46.599Z,15.30
2019-03-28T06:07:12.598Z,15.30
2019-03-28T06:08:38.682Z,15.30
2019-03-28T06:10:04.844Z,15.30
2019-03-28T06:11:30.919Z,15.20
2019-03-28T06:12:57.124Z,15.30
2019-03-28T06:14:23.399Z,15.30
2019-03-28T06:15:49.462Z,15.30
2019-03-28T06:17:15.484Z,15.30
2019-03-28T06:18:41.640Z,15.30
2019-03-28T06:20:08.783Z,15.20
2019-03-28T06:21:34.869Z,15.30
2019-03-28T06:23:00.992Z,15.30
2019-03-28T06:24:27.400Z,15.30
2019-03-28T06:25:53.503Z,15.30
2019-03-28T06:27:19.533Z,15.30
2019-03-28T06:28:45.660Z,15.30
2019-03-28T06:30:12.534Z,15.20
2019-03-28T06:31:38.609Z,15.20
2019-03-28T06:33:04.697Z,15.20
2019-03-28T06:34:30.738Z,15.20
2019-03-28T06:35:56.782Z,15.20
2019-03-28T06:37:22.993Z,15.20
2019-03-28T06:38:49.008Z,15.20
2019-03-28T06:40:15.243Z,15.10
2019-03-28T06:41:44.202Z,15.10
2019-03-28T06:43:09.123Z,15.10
2019-03-28T06:44:35.316Z,15.20
2019-03-28T06:46:01.536Z,15.20
2019-03-28T06:47:27.662Z,15.10
2019-03-28T06:48:56.946Z,15.20
2019-03-28T06:50:22.988Z,15.20
2019-03-28T06:51:48.991Z,15.20
2019-03-28T06:53:15.052Z,15.20
2019-03-28T06:54:41.317Z,15.20
2019-03-28T06:56:07.365Z,15.20
2019-03-28T06:57:33.975Z,15.20
2019-03-28T06:59:00.292Z,15.20
2019-03-28T07:00:26.522Z,15.20
2019-03-28T07:01:52.517Z,15.30
2019-03-28T07:03:18.558Z,15.30
2019-03-28T07:04:44.766Z,15.30
2019-03-28T07:06:10.805Z,15.30
2019-03-28T07:07:36.845Z,15.30
2019-03-28T07:09:03.308Z,15.30
2019-03-28T07:10:29.655Z,15.40
2019-03-28T07:11:55.786Z,15.40
2019-03-28T07:13:22.020Z,15.40
2019-03-28T07:14:48.476Z,15.40
2019-03-28T07:16:14.879Z,15.40
2019-03-28T07:17:41.102Z,15.40
2019-03-28T07:19:10.744Z,15.50
2019-03-28T07:20:36.907Z,15.40
2019-03-28T07:22:03.355Z,15.50
2019-03-28T07:23:29.539Z,15.50
2019-03-28T07:24:55.646Z,15.50
2019-03-28T07:26:21.760Z,15.50
2019-03-28T07:27:47.904Z,15.50
2019-03-28T07:29:15.306Z,15.60
2019-03-28T07:30:41.513Z,15.50
2019-03-28T07:32:07.565Z,15.60
2019-03-28T07:33:35.078Z,15.60
2019-03-28T07:35:01.195Z,15.60
2019-03-28T07:36:27.332Z,15.60
2019-03-28T07:37:53.456Z,15.60
2019-03-28T07:39:19.528Z,15.70
2019-03-28T07:40:45.594Z,15.70
2019-03-28T07:42:11.874Z,15.70
2019-03-28T07:43:37.903Z,15.70
2019-03-28T07:45:06.685Z,15.80
2019-03-28T07:46:32.154Z,15.80
2019-03-28T07:47:58.274Z,15.80
2019-03-28T07:49:25.008Z,15.80
2019-03-28T07:50:51.157Z,15.80
2019-03-28T07:52:19.979Z,15.90
2019-03-28T07:53:44.896Z,15.90
2019-03-28T07:55:11.017Z,16.00
2019-03-28T07:56:37.131Z,16.00
2019-03-28T07:58:03.219Z,16.10
2019-03-28T07:59:30.483Z,16.10
2019-03-28T08:00:56.654Z,16.10
2019-03-28T08:02:22.755Z,16.20
2019-03-28T08:03:48.773Z,16.20
2019-03-28T08:05:15.407Z,16.30
2019-03-28T08:06:49.650Z,16.30
2019-03-28T08:08:09.299Z,16.40
2019-03-28T08:09:36.741Z,16.40
2019-03-28T08:11:03.096Z,16.40
2019-03-28T08:12:29.153Z,16.50
2019-03-28T08:13:55.171Z,16.60
2019-03-28T08:15:21.315Z,16.60
2019-03-28T08:16:47.328Z,16.60
2019-03-28T08:18:13.411Z,16.70
2019-03-28T08:19:41.449Z,16.70
2019-03-28T08:21:07.417Z,16.80
2019-03-28T08:22:33.515Z,16.80
2019-03-28T08:23:59.528Z,16.80
2019-03-28T08:25:25.663Z,16.90
2019-03-28T08:26:51.660Z,16.90
2019-03-28T08:28:17.764Z,17.00
2019-03-28T08:29:44.324Z,17.10
2019-03-28T08:31:10.474Z,17.10
2019-03-28T08:32:39.632Z,17.10
2019-03-28T08:34:04.628Z,17.20
2019-03-28T08:35:31.802Z,17.20
2019-03-28T08:36:58.059Z,17.30
2019-03-28T08:38:24.572Z,17.40
2019-03-28T08:39:50.595Z,17.40
2019-03-28T08:41:16.648Z,17.40
2019-03-28T08:42:42.653Z,17.50
2019-03-28T08:44:08.784Z,17.50
2019-03-28T08:45:34.853Z,17.50
2019-03-28T08:47:00.839Z,17.50
2019-03-28T08:48:27.076Z,17.60
2019-03-28T08:49:53.112Z,17.60
2019-03-28T08:51:19.137Z,17.70
2019-03-28T08:52:45.115Z,17.70
2019-03-28T08:54:11.090Z,17.70
2019-03-28T08:55:37.200Z,17.80
2019-03-28T08:57:03.318Z,17.80
2019-03-28T08:58:29.365Z,17.90
2019-03-28T08:59:55.498Z,18.00
2019-03-28T09:01:23.227Z,18.00
2019-03-28T09:02:49.249Z,18.00
2019-03-28T09:04:15.297Z,18.10
2019-03-28T09:05:41.300Z,18.10
2019-03-28T09:07:07.395Z,18.20
2019-03-28T09:08:33.352Z,18.20
2019-03-28T09:09:59.440Z,18.30
2019-03-28T09:11:25.410Z,18.40
2019-03-28T09:12:51.877Z,18.40
2019-03-28T09:14:18.107Z,18.50
2019-03-28T09:15:44.358Z,18.50
2019-03-28T09:17:10.461Z,18.60
2019-03-28T09:18:36.857Z,18.60
2019-03-28T09:20:02.939Z,18.70
2019-03-28T09:21:28.990Z,18.80
2019-03-28T09:22:55.120Z,18.80
2019-03-28T09:24:21.130Z,18.90
2019-03-28T09:25:47.108Z,19.00
2019-03-28T09:27:13.268Z,19.10
2019-03-28T09:28:39.493Z,19.10
2019-03-28T09:30:06.222Z,19.20
2019-03-28T09:31:32.403Z,19.30
2019-03-28T09:32:58.602Z,19.30
2019-03-28T09:34:24.719Z,19.40
2019-03-28T09:35:50.858Z,19.40
2019-03-28T09:37:17.008Z,19.50
2019-03-28T09:38:43.017Z,19.50
2019-03-28T09:40:09.266Z,19.50
2019-03-28T09:41:35.284Z,19.60
2019-03-28T09:43:01.377Z,19.70
2019-03-28T09:44:27.406Z,19.70
2019-03-28T09:45:53.567Z,19.80
2019-03-28T09:47:19.634Z,19.80
2019-03-28T09:48:45.631Z,19.90
2019-03-28T09:50:11.852Z,20.00
2019-03-28T09:51:38.036Z,20.00
2019-03-28T09:54:33.579Z,20.00
2019-03-28T09:55:59.751Z,20.10
2019-03-28T09:57:25.738Z,20.20
2019-03-28T09:58:51.880Z,20.30
2019-03-28T10:00:19.691Z,20.30
2019-03-28T10:01:45.738Z,20.40
2019-03-28T10:03:11.846Z,20.40
2019-03-28T10:04:37.851Z,20.50
2019-03-28T10:06:04.022Z,20.60
2019-03-28T10:07:30.054Z,20.60
2019-03-28T10:08:56.042Z,20.60
2019-03-28T10:10:22.330Z,20.60
2019-03-28T10:11:48.441Z,20.70
2019-03-28T10:13:14.567Z,20.70
2019-03-28T10:14:40.590Z,20.70
2019-03-28T10:16:06.836Z,20.70
2019-03-28T10:17:32.858Z,20.70
2019-03-28T10:18:58.919Z,20.70
2019-03-28T10:20:25.083Z,20.80
2019-03-28T10:21:51.040Z,20.80
2019-03-28T10:23:17.116Z,20.80
2019-03-28T10:24:43.117Z,20.80
2019-03-28T10:26:09.278Z,20.90
2019-03-28T10:27:35.412Z,20.90
2019-03-28T10:29:01.616Z,21.00
2019-03-28T10:30:46.444Z,21.00
2019-03-28T10:32:12.418Z,21.00
2019-03-28T10:33:38.679Z,21.00
2019-03-28T10:35:06.926Z,21.00
2019-03-28T10:36:32.736Z,21.10
2019-03-28T10:37:58.778Z,21.10
2019-03-28T10:39:24.806Z,21.10
2019-03-28T10:40:50.966Z,21.10
2019-03-28T10:42:17.148Z,21.10
2019-03-28T10:43:43.214Z,21.00
2019-03-28T10:45:09.621Z,21.10
2019-03-28T10:46:35.594Z,21.10
2019-03-28T10:48:01.620Z,21.10
2019-03-28T10:49:27.771Z,21.10
2019-03-28T10:50:53.808Z,21.10
2019-03-28T10:52:19.886Z,21.20
2019-03-28T10:53:45.883Z,21.10
2019-03-28T10:55:12.025Z,21.10
2019-03-28T10:56:51.223Z,21.10
2019-03-28T10:58:17.651Z,21.20
2019-03-28T10:59:33.500Z,21.20
2019-03-28T11:00:59.601Z,21.20
2019-03-28T11:02:28.579Z,21.20
2019-03-28T11:03:53.287Z,21.30
2019-03-28T11:05:19.496Z,21.40
2019-03-28T11:06:45.524Z,21.40
2019-03-28T11:08:11.539Z,21.40
2019-03-28T11:09:37.649Z,21.40
2019-03-28T11:11:03.735Z,21.40
2019-03-28T11:12:29.801Z,21.40
2019-03-28T11:13:55.754Z,21.40
2019-03-28T11:15:21.863Z,21.50
2019-03-28T11:16:48.371Z,21.40
2019-03-28T11:18:14.671Z,21.50
2019-03-28T11:19:43.962Z,21.50
2019-03-28T11:21:10.143Z,21.50
2019-03-28T11:22:36.196Z,21.40
2019-03-28T11:24:02.223Z,21.50
2019-03-28T11:25:28.282Z,21.50
2019-03-28T11:26:54.338Z,21.50
2019-03-28T11:28:23.295Z,21.50
2019-03-28T11:29:48.045Z,21.50
2019-03-28T11:31:14.026Z,21.50
2019-03-28T11:32:40.015Z,21.50
2019-03-28T11:34:06.144Z,21.40
2019-03-28T11:35:32.668Z,21.40
2019-03-28T11:36:58.991Z,21.40
2019-03-28T11:38:25.000Z,21.30
2019-03-28T11:39:51.140Z,21.30
2019-03-28T11:41:17.154Z,21.30
2019-03-28T11:42:43.143Z,21.30
2019-03-28T11:44:09.293Z,21.30
2019-03-28T11:45:35.311Z,21.30
2019-03-28T11:47:01.430Z,21.40
2019-03-28T11:48:27.417Z,21.30
2019-03-28T11:49:53.436Z,21.50
2019-03-28T11:51:19.426Z,21.50
2019-03-28T11:52:45.490Z,21.40
2019-03-28T11:54:11.524Z,21.50
2019-03-28T11:55:37.827Z,21.40
2019-03-28T11:57:03.816Z,21.40
2019-03-28T11:58:29.824Z,21.40
2019-03-28T11:59:58.012Z,21.40
2019-03-28T12:01:23.453Z,21.30
2019-03-28T12:02:49.773Z,21.30
2019-03-28T12:04:15.890Z,21.30
2019-03-28T12:05:41.903Z,21.20
2019-03-28T12:07:07.971Z,21.20
2019-03-28T12:08:34.023Z,21.20
2019-03-28T12:10:00.394Z,21.20
2019-03-28T12:11:27.053Z,21.20
2019-03-28T12:12:53.125Z,21.10
2019-03-28T12:14:19.166Z,21.00
2019-03-28T12:15:45.226Z,20.90
2019-03-28T12:17:11.220Z,20.90
2019-03-28T12:18:40.105Z,20.90
2019-03-28T12:20:06.949Z,20.90
2019-03-28T12:21:32.963Z,20.90
2019-03-28T12:22:59.003Z,20.70
2019-03-28T12:24:25.582Z,20.70
2019-03-28T12:25:51.596Z,20.80
2019-03-28T12:27:24.880Z,20.80
2019-03-28T12:28:50.932Z,20.80
2019-03-28T12:30:20.113Z,20.80
2019-03-28T12:31:46.459Z,20.80
2019-03-28T12:33:12.558Z,20.80
2019-03-28T12:34:38.685Z,20.80
2019-03-28T12:36:04.693Z,20.80
2019-03-28T12:37:30.804Z,20.80
2019-03-28T12:38:56.857Z,20.80
2019-03-28T12:40:23.074Z,20.80
2019-03-28T12:41:49.168Z,20.70
2019-03-28T12:43:15.275Z,20.70
2019-03-28T12:44:41.294Z,20.70
2019-03-28T12:46:07.473Z,20.80
2019-03-28T12:47:42.166Z,20.80
2019-03-28T12:49:01.310Z,20.70
2019-03-28T12:50:27.354Z,20.70
2019-03-28T12:51:53.436Z,20.70
2019-03-28T12:53:19.491Z,20.70
2019-03-28T12:54:45.488Z,20.70
2019-03-28T12:56:12.319Z,20.60
2019-03-28T12:57:38.554Z,20.70
2019-03-28T12:59:04.642Z,20.60
2019-03-28T13:00:38.307Z,20.60
2019-03-28T13:02:04.446Z,20.60
2019-03-28T13:03:44.531Z,20.60
2019-03-28T13:04:58.124Z,20.70
2019-03-28T13:06:24.173Z,20.70
2019-03-28T13:07:50.236Z,20.60
2019-03-28T13:09:16.497Z,20.60
2019-03-28T13:10:42.535Z,20.60
2019-03-28T13:12:08.596Z,20.60
2019-03-28T13:13:34.595Z,20.60
2019-03-28T13:15:00.647Z,20.70
2019-03-28T13:16:26.774Z,20.60
2019-03-28T13:17:52.813Z,20.60
2019-03-28T13:19:18.889Z,20.60
2019-03-28T13:20:44.918Z,20.60
2019-03-28T13:22:10.974Z,20.50
2019-03-28T13:23:37.057Z,20.50
2019-03-28T13:25:03.155Z,20.50
2019-03-28T13:26:29.288Z,20.40
2019-03-28T13:27:55.379Z,20.40
2019-03-28T13:29:21.459Z,20.40
2019-03-28T13:30:47.438Z,20.40
2019-03-28T13:32:13.600Z,20.40
2019-03-28T13:33:39.584Z,20.40
2019-03-28T13:35:06.448Z,20.40
2019-03-28T13:36:32.476Z,20.40
2019-03-28T13:37:58.550Z,20.40
2019-03-28T13:39:24.683Z,20.40
2019-03-28T13:40:51.648Z,20.40
2019-03-28T13:42:17.816Z,20.30
2019-03-28T13:43:43.835Z,20.40
2019-03-28T13:45:11.708Z,20.40
2019-03-28T13:46:37.682Z,20.40
2019-03-28T13:48:03.648Z,20.40
2019-03-28T13:49:29.780Z,20.40
2019-03-28T13:50:55.820Z,20.40
2019-03-28T13:52:21.766Z,20.40
2019-03-28T13:53:47.741Z,20.40
2019-03-28T13:55:14.115Z,20.40
2019-03-28T13:56:40.167Z,20.40
2019-03-28T13:58:06.393Z,20.40
2019-03-28T13:59:35.250Z,20.40
2019-03-28T14:01:00.182Z,20.30
2019-03-28T14:02:26.131Z,20.30
2019-03-28T14:03:52.165Z,20.30
2019-03-28T14:05:18.176Z,20.20
2019-03-28T14:06:44.472Z,20.20
2019-03-28T14:08:10.513Z,20.20
2019-03-28T14:09:41.510Z,20.20
2019-03-28T14:11:07.573Z,20.20
2019-03-28T14:12:33.765Z,20.20
2019-03-28T14:14:00.080Z,20.20
2019-03-28T14:15:26.119Z,20.20
2019-03-28T14:16:53.273Z,20.20
2019-03-28T14:18:19.422Z,20.20
2019-03-28T14:19:45.397Z,20.20
2019-03-28T14:21:11.435Z,20.20
2019-03-28T14:22:37.591Z,20.30
2019-03-28T14:24:03.575Z,20.30
2019-03-28T14:25:29.595Z,20.30
2019-03-28T14:26:55.881Z,20.20
2019-03-28T14:28:21.900Z,20.20
2019-03-28T14:29:48.479Z,20.20
2019-03-28T14:31:15.177Z,20.20
2019-03-28T14:32:52.540Z,20.10
2019-03-28T14:34:09.396Z,20.10
2019-03-28T14:35:35.369Z,20.10
2019-03-28T14:37:01.364Z,20.00
2019-03-28T14:38:27.479Z,20.10
2019-03-28T14:39:53.942Z,20.00
2019-03-28T14:41:19.994Z,20.10
2019-03-28T14:42:46.048Z,20.00
2019-03-28T14:44:12.373Z,20.00
2019-03-28T14:45:38.333Z,20.00
2019-03-28T14:47:04.353Z,20.00
2019-03-28T14:48:30.751Z,20.00
2019-03-28T14:49:56.816Z,20.00
2019-03-28T14:51:22.955Z,20.00
2019-03-28T14:52:49.009Z,20.00
2019-03-28T14:54:15.174Z,20.00
2019-03-28T14:55:41.536Z,20.00
2019-03-28T14:57:08.016Z,20.00
2019-03-28T14:58:35.509Z,20.10
2019-03-28T15:00:02.607Z,20.00
2019-03-28T15:01:28.629Z,20.00
2019-03-28T15:02:54.859Z,19.90
2019-03-28T15:04:21.095Z,20.00
2019-03-28T15:05:47.464Z,19.90
2019-03-28T15:07:13.505Z,20.00
2019-03-28T15:08:39.668Z,20.00
2019-03-28T15:10:06.678Z,20.00
2019-03-28T15:11:32.787Z,20.00
2019-03-28T15:12:58.918Z,20.00
2019-03-28T15:14:25.035Z,19.90
2019-03-28T15:15:51.179Z,20.00
2019-03-28T15:17:19.775Z,19.90
2019-03-28T15:18:46.971Z,19.90
2019-03-28T15:20:13.374Z,19.90
2019-03-28T15:21:39.464Z,19.90
2019-03-28T15:23:05.529Z,19.90
2019-03-28T15:24:31.654Z,19.90
2019-03-28T15:25:58.091Z,19.80
2019-03-28T15:27:24.178Z,19.80
2019-03-28T15:28:50.616Z,19.90
2019-03-28T15:30:16.853Z,19.80
2019-03-28T15:31:42.863Z,19.80
2019-03-28T15:33:09.001Z,19.80
2019-03-28T15:34:35.054Z,19.80
2019-03-28T15:36:01.189Z,19.80
2019-03-28T15:37:27.204Z,19.80
2019-03-28T15:38:53.257Z,19.80
2019-03-28T15:40:19.450Z,19.70
2019-03-28T15:41:45.680Z,19.70
2019-03-28T15:43:11.889Z,19.70
2019-03-28T15:44:39.326Z,19.70
2019-03-28T15:46:05.864Z,19.70
2019-03-28T15:47:31.830Z,19.70
2019-03-28T15:48:57.935Z,19.70
2019-03-28T15:50:24.039Z,19.70
2019-03-28T15:51:50.115Z,19.70
2019-03-28T15:53:16.383Z,19.70
2019-03-28T15:54:42.382Z,19.70
2019-03-28T15:56:08.503Z,19.70
2019-03-28T15:57:34.484Z,19.70
2019-03-28T15:59:00.495Z,19.60
2019-03-28T16:00:29.071Z,19.60
2019-03-28T16:01:54.320Z,19.60
2019-03-28T16:03:20.416Z,19.60
2019-03-28T16:04:46.608Z,19.60
2019-03-28T16:06:12.775Z,19.60
2019-03-28T16:07:38.756Z,19.60
2019-03-28T16:09:05.580Z,19.70
2019-03-28T16:10:31.576Z,19.60
2019-03-28T16:12:02.832Z,19.60
2019-03-28T16:13:25.316Z,19.60
2019-03-28T16:14:53.560Z,19.60
2019-03-28T16:16:20.006Z,19.60
2019-03-28T16:17:46.232Z,19.60
2019-03-28T16:19:12.352Z,19.60
2019-03-28T16:20:38.369Z,19.60
2019-03-28T16:22:04.812Z,19.50
2019-03-28T16:23:30.900Z,19.50
2019-03-28T16:24:57.014Z,19.50
2019-03-28T16:26:23.255Z,19.50
2019-03-28T16:27:49.327Z,19.50
2019-03-28T16:29:15.586Z,19.50
2019-03-28T16:30:41.941Z,19.50
2019-03-28T16:32:08.122Z,19.40
2019-03-28T16:33:34.156Z,19.40
2019-03-28T16:35:00.451Z,19.40
2019-03-28T16:36:26.609Z,19.40
2019-03-28T16:37:53.767Z,19.40
2019-03-28T16:39:20.206Z,19.40
2019-03-28T16:40:46.233Z,19.30
2019-03-28T16:42:12.402Z,19.30
2019-03-28T16:43:38.523Z,19.30
2019-03-28T16:45:04.851Z,19.30
2019-03-28T16:46:30.890Z,19.20
2019-03-28T16:47:57.030Z,19.20
2019-03-28T16:49:23.053Z,19.30
2019-03-28T16:50:49.215Z,19.30
2019-03-28T16:52:15.231Z,19.30
2019-03-28T16:53:41.259Z,19.20
2019-03-28T16:55:07.683Z,19.20
2019-03-28T16:56:33.803Z,19.20
2019-03-28T16:57:59.799Z,19.10
2019-03-28T16:59:25.931Z,19.10
2019-03-28T17:00:52.028Z,19.10
2019-03-28T17:02:18.118Z,19.10
2019-03-28T17:03:44.292Z,19.00
2019-03-28T17:05:10.775Z,19.00
2019-03-28T17:06:37.221Z,19.00
2019-03-28T17:08:04.746Z,19.00
2019-03-28T17:09:31.837Z,19.00
2019-03-28T17:10:58.101Z,19.00
2019-03-28T17:12:24.182Z,19.00
2019-03-28T17:13:50.188Z,19.00
2019-03-28T17:15:16.344Z,18.90
2019-03-28T17:16:42.819Z,18.90
2019-03-28T17:18:09.139Z,19.00
2019-03-28T17:19:35.164Z,18.90
2019-03-28T17:21:01.467Z,19.00
2019-03-28T17:22:27.615Z,18.90
2019-03-28T17:23:53.900Z,18.90
2019-03-28T17:25:20.164Z,18.90
2019-03-28T17:26:46.245Z,18.90
2019-03-28T17:28:12.396Z,18.80
2019-03-28T17:29:38.560Z,18.80
2019-03-28T17:31:06.744Z,18.90
2019-03-28T17:32:36.434Z,18.90
2019-03-28T17:34:01.195Z,18.90
2019-03-28T17:35:27.196Z,18.90
2019-03-28T17:36:53.379Z,18.90
2019-03-28T17:38:19.544Z,18.80
2019-03-28T17:39:59.781Z,18.80
2019-03-28T17:41:25.936Z,18.80
2019-03-28T17:42:52.150Z,18.70
2019-03-28T17:44:18.653Z,18.70
2019-03-28T17:45:44.639Z,18.70
2019-03-28T17:47:10.982Z,18.70
2019-03-28T17:48:37.248Z,18.70
2019-03-28T17:50:03.273Z,18.70
2019-03-28T17:51:29.395Z,18.60
2019-03-28T17:52:55.636Z,18.60
2019-03-28T17:54:21.690Z,18.60
2019-03-28T17:55:47.682Z,18.60
2019-03-28T17:57:13.924Z,18.60
2019-03-28T17:58:40.037Z,18.60
2019-03-28T18:00:06.801Z,18.60
2019-03-28T18:01:32.849Z,18.60
2019-03-28T18:03:09.122Z,18.60
2019-03-28T18:04:26.602Z,18.60
2019-03-28T18:05:58.293Z,18.60
2019-03-28T18:07:20.326Z,18.50
2019-03-28T18:08:46.328Z,18.50
2019-03-28T18:10:12.564Z,18.50
2019-03-28T18:11:38.800Z,18.50
2019-03-28T18:13:05.635Z,18.50
2019-03-28T18:14:32.059Z,18.50
2019-03-28T18:15:58.194Z,18.50
2019-03-28T18:17:24.256Z,18.50
2019-03-28T18:18:50.325Z,18.50
2019-03-28T18:20:16.625Z,18.50
2019-03-28T18:21:42.739Z,18.40
2019-03-28T18:23:08.777Z,18.40
2019-03-28T18:24:34.877Z,18.40
2019-03-28T18:26:00.954Z,18.40
2019-03-28T18:27:27.137Z,18.40
2019-03-28T18:28:53.275Z,18.30
2019-03-28T18:30:20.011Z,18.30
2019-03-28T18:31:50.919Z,18.30
2019-03-28T18:33:14.070Z,18.40